createdAt,value
2019-05-21T00:01:29.833Z,13.42
2019-05-21T00:03:59.363Z,13.41
2019-05-21T00:07:08.049Z,13.39
2019-05-21T00:09:37.464Z,13.38
2019-05-21T00:12:06.833Z,13.34
2019-05-21T00:14:36.333Z,13.34
2019-05-21T00:20:31.091Z,13.22
2019-05-21T00:26:14.962Z,13.16
2019-05-21T00:28:42.991Z,13.17
2019-05-21T00:31:50.400Z,13.17
2019-05-21T00:34:57.893Z,13.12
2019-05-21T00:38:05.278Z,13.07
2019-05-21T00:41:12.701Z,13.04
2019-05-21T00:44:32.393Z,12.99
2019-05-21T00:52:44.306Z,12.99
2019-05-21T00:55:53.014Z,12.96
2019-05-21T00:58:22.599Z,12.96
2019-05-21T01:00:52.161Z,12.99
2019-05-21T01:03:21.670Z,12.97
2019-05-21T01:14:48.692Z,13.04
2019-05-21T01:21:06.164Z,13.09
2019-05-21T01:26:15.305Z,13.16
2019-05-21T01:29:24.080Z,13.15
2019-05-21T01:31:55.385Z,13.16
2019-05-21T01:34:24.750Z,13.20
2019-05-21T01:45:51.697Z,13.28
2019-05-21T01:48:21.611Z,13.28
2019-05-21T01:50:51.118Z,13.35
2019-05-21T01:56:55.305Z,13.35
2019-05-21T02:05:32.717Z,13.33
2019-05-21T02:07:52.378Z,13.21
2019-05-21T02:10:22.000Z,13.24
2019-05-21T02:13:30.723Z,13.24
2019-05-21T02:16:00.128Z,13.25
2019-05-21T02:18:29.640Z,13.23
2019-05-21T02:20:59.095Z,13.24
2019-05-21T02:23:28.534Z,13.22
2019-05-21T02:25:57.887Z,13.27
2019-05-21T02:28:27.412Z,13.25
2019-05-21T02:30:57.162Z,13.26
2019-05-21T02:33:28.199Z,13.24
2019-05-21T02:35:57.581Z,13.23
2019-05-21T02:41:35.632Z,13.22
2019-05-21T02:44:44.334Z,13.24
2019-05-21T02:47:13.859Z,13.28
2019-05-21T02:53:17.169Z,13.37
2019-05-21T02:59:25.832Z,13.38
2019-05-21T03:04:50.656Z,13.11
2019-05-21T03:07:20.171Z,13.13
2019-05-21T03:10:10.168Z,13.15
2019-05-21T03:25:02.062Z,13.30
2019-05-21T03:27:29.673Z,13.27
2019-05-21T03:29:59.154Z,13.28
2019-05-21T03:32:28.541Z,12.46
2019-05-21T03:34:58.065Z,13.27
2019-05-21T03:37:27.564Z,13.25
2019-05-21T03:39:56.976Z,13.33
2019-05-21T03:42:26.471Z,13.35
2019-05-21T03:45:00.291Z,13.38
2019-05-21T03:50:23.088Z,13.43
2019-05-21T03:56:06.915Z,13.48
2019-05-21T03:58:36.316Z,13.56
2019-05-21T04:04:01.272Z,13.61
2019-05-21T04:06:31.174Z,13.55
2019-05-21T04:11:55.784Z,13.55
2019-05-21T04:14:44.259Z,13.57
2019-05-21T04:17:34.705Z,13.60
2019-05-21T04:26:19.533Z,13.87
2019-05-21T04:28:49.620Z,13.88
2019-05-21T04:31:18.944Z,13.91
2019-05-21T04:34:27.832Z,13.98
2019-05-21T04:37:09.752Z,14.01
2019-05-21T04:39:28.665Z,14.06
2019-05-21T04:44:53.767Z,14.16
2019-05-21T04:47:23.469Z,14.26
2019-05-21T04:50:32.267Z,14.31
2019-05-21T04:53:01.777Z,14.32
2019-05-21T04:55:31.207Z,14.30
2019-05-21T04:58:00.666Z,14.30
2019-05-21T05:03:45.092Z,14.34
2019-05-21T05:06:14.536Z,14.32
2019-05-21T05:08:44.032Z,14.32
2019-05-21T05:11:13.557Z,14.37
2019-05-21T05:16:44.641Z,14.44
2019-05-21T05:23:02.280Z,14.48
2019-05-21T05:25:31.886Z,14.44
2019-05-21T05:28:01.979Z,14.51
2019-05-21T05:30:31.586Z,14.53
2019-05-21T05:33:00.970Z,14.57
2019-05-21T05:35:30.590Z,14.56
2019-05-21T05:38:00.201Z,14.58
2019-05-21T05:40:29.724Z,14.54
2019-05-21T05:42:59.132Z,14.52
2019-05-21T05:45:28.539Z,14.48
2019-05-21T05:47:58.314Z,14.48
2019-05-21T05:53:19.567Z,14.61
2019-05-21T05:55:49.073Z,14.69
2019-05-21T05:58:18.675Z,14.66
2019-05-21T06:01:27.424Z,14.64
2019-05-21T06:09:59.867Z,14.68
2019-05-21T06:12:29.981Z,14.58
2019-05-21T06:14:59.682Z,14.51
2019-05-21T06:17:29.081Z,14.47
2019-05-21T06:19:58.803Z,14.54
2019-05-21T06:22:28.290Z,14.62
2019-05-21T06:24:57.688Z,14.55
2019-05-21T06:27:27.141Z,14.49
2019-05-21T06:29:56.537Z,14.48
2019-05-21T06:33:05.788Z,14.43
2019-05-21T06:35:35.369Z,14.47
2019-05-21T06:38:17.300Z,14.39
2019-05-21T06:41:15.365Z,14.27
2019-05-21T06:46:45.992Z,14.26
2019-05-21T06:49:15.772Z,14.37
2019-05-21T06:55:20.274Z,14.47
2019-05-21T06:57:49.741Z,14.50
2019-05-21T07:00:58.730Z,14.52
2019-05-21T07:03:28.286Z,14.47
2019-05-21T07:05:59.455Z,14.36
2019-05-21T07:09:08.433Z,14.32
2019-05-21T07:15:03.862Z,14.32
2019-05-21T07:17:33.372Z,14.36
2019-05-21T07:20:42.137Z,14.64
2019-05-21T07:23:11.650Z,14.79
2019-05-21T07:25:41.016Z,14.73
2019-05-21T07:28:10.596Z,14.78
2019-05-21T07:39:56.791Z,15.05
2019-05-21T07:43:05.501Z,14.94
2019-05-21T07:45:35.059Z,14.96
2019-05-21T07:51:18.577Z,14.94
2019-05-21T07:53:48.153Z,14.69
2019-05-21T07:56:18.175Z,14.65
2019-05-21T08:02:22.320Z,14.57
2019-05-21T08:11:07.209Z,14.34
2019-05-21T08:13:36.671Z,14.40
2019-05-21T08:16:45.532Z,14.30
2019-05-21T08:31:13.699Z,13.96
2019-05-21T08:34:22.564Z,13.93
2019-05-21T08:37:31.764Z,14.07
2019-05-21T08:40:01.157Z,14.12
2019-05-21T08:42:30.540Z,14.15
2019-05-21T08:45:19.710Z,14.25
2019-05-21T08:50:28.269Z,13.89
2019-05-21T08:56:06.777Z,13.69
2019-05-21T08:58:36.519Z,13.86
2019-05-21T09:01:45.225Z,13.97
2019-05-21T09:04:14.653Z,14.19
2019-05-21T09:06:44.573Z,14.23
2019-05-21T09:09:14.160Z,14.09
2019-05-21T09:11:43.579Z,13.76
2019-05-21T09:14:13.095Z,13.82
2019-05-21T09:16:42.493Z,14.02
2019-05-21T09:19:11.853Z,13.98
2019-05-21T09:22:20.720Z,13.94
2019-05-21T09:24:50.231Z,13.89
2019-05-21T09:27:19.731Z,13.91
2019-05-21T09:30:28.476Z,13.78
2019-05-21T09:32:58.255Z,13.84
2019-05-21T09:35:27.897Z,14.13
2019-05-21T09:37:57.399Z,13.96
2019-05-21T09:43:42.392Z,13.82
2019-05-21T09:46:11.775Z,13.89
2019-05-21T09:49:00.121Z,13.84
2019-05-21T09:54:38.387Z,13.74
2019-05-21T10:00:37.686Z,13.93
2019-05-21T10:18:06.831Z,13.60
2019-05-21T10:21:15.619Z,13.69
2019-05-21T10:24:24.650Z,13.65
2019-05-21T10:33:09.802Z,13.75
2019-05-21T10:35:39.146Z,13.96
2019-05-21T10:41:46.031Z,13.81
2019-05-21T10:44:14.486Z,13.82
2019-05-21T10:47:23.401Z,13.69
2019-05-21T10:49:52.929Z,13.68
2019-05-21T10:52:22.409Z,13.87
2019-05-21T10:55:31.531Z,14.11
2019-05-21T11:01:35.507Z,14.10
2019-05-21T11:07:15.419Z,14.26
2019-05-21T11:10:24.081Z,14.51
2019-05-21T11:13:33.033Z,14.61
2019-05-21T11:22:18.255Z,15.13
2019-05-21T11:24:47.848Z,15.31
2019-05-21T11:27:56.617Z,15.41
2019-05-21T11:30:26.090Z,15.49
2019-05-21T11:33:34.810Z,15.68
2019-05-21T11:42:06.731Z,17.41
2019-05-21T11:44:36.310Z,17.55
2019-05-21T11:47:05.780Z,17.89
2019-05-21T11:49:35.533Z,18.07
2019-05-21T11:55:18.826Z,17.76
2019-05-21T12:01:02.784Z,18.58
2019-05-21T12:07:19.207Z,18.90
2019-05-21T12:09:48.783Z,18.80
2019-05-21T12:12:18.282Z,18.29
2019-05-21T12:14:47.720Z,18.58
2019-05-21T12:17:56.510Z,18.91
2019-05-21T12:21:05.326Z,19.27
2019-05-21T12:30:10.159Z,18.91
2019-05-21T12:33:18.884Z,19.01
2019-05-21T12:36:28.070Z,19.28
2019-05-21T12:45:00.666Z,20.10
2019-05-21T12:47:30.155Z,20.59
2019-05-21T12:50:38.992Z,20.62
2019-05-21T12:53:08.706Z,20.76
2019-05-21T12:56:17.674Z,20.67
2019-05-21T12:58:47.172Z,20.16
2019-05-21T13:01:16.783Z,19.91
2019-05-21T13:03:46.543Z,19.81
2019-05-21T13:06:15.986Z,19.73
2019-05-21T13:09:32.829Z,19.69
2019-05-21T13:11:56.049Z,19.63
2019-05-21T13:15:04.744Z,20.07
2019-05-21T13:17:34.274Z,20.52
2019-05-21T13:20:04.681Z,20.33
2019-05-21T13:22:53.876Z,20.20
2019-05-21T13:31:50.257Z,19.40
2019-05-21T13:34:19.763Z,19.52
2019-05-21T13:36:49.257Z,19.60
2019-05-21T13:41:59.236Z,20.10
2019-05-21T13:45:07.922Z,20.52
2019-05-21T13:47:37.387Z,20.69
2019-05-21T13:53:31.889Z,19.84
2019-05-21T13:56:01.502Z,19.20
2019-05-21T13:58:30.935Z,19.31
2019-05-21T14:06:51.926Z,19.00
2019-05-21T14:10:14.103Z,18.97
2019-05-21T14:13:11.226Z,19.85
2019-05-21T14:18:19.991Z,21.71
2019-05-21T14:21:28.674Z,22.86
2019-05-21T14:24:37.481Z,23.63
2019-05-21T14:36:13.468Z,24.02
2019-05-21T14:39:06.106Z,24.54
2019-05-21T14:42:12.546Z,24.50
2019-05-21T14:44:42.089Z,25.35
2019-05-21T14:47:11.475Z,23.74
2019-05-21T14:49:40.982Z,24.06
2019-05-21T14:52:10.735Z,23.30
2019-05-21T14:54:43.057Z,23.54
2019-05-21T14:57:12.696Z,24.12
2019-05-21T14:59:42.317Z,22.12
2019-05-21T15:02:11.756Z,22.39
2019-05-21T15:04:41.384Z,22.76
2019-05-21T15:07:10.971Z,22.79
2019-05-21T15:09:40.545Z,22.32
2019-05-21T15:12:09.947Z,22.43
2019-05-21T15:14:40.273Z,21.36
2019-05-21T15:17:48.938Z,20.75
2019-05-21T15:23:32.300Z,20.98
2019-05-21T15:26:03.906Z,21.48
2019-05-21T15:28:33.412Z,21.19
2019-05-21T15:31:02.871Z,20.72
2019-05-21T15:33:32.354Z,20.07
2019-05-21T15:36:01.812Z,19.64
2019-05-21T15:38:48.738Z,19.44
2019-05-21T15:41:10.391Z,19.32
2019-05-21T15:43:33.489Z,19.00
2019-05-21T15:46:02.946Z,18.76
2019-05-21T15:48:32.320Z,18.54
2019-05-21T15:51:01.698Z,18.40
2019-05-21T15:53:31.510Z,18.33
2019-05-21T15:56:00.962Z,18.18
2019-05-21T15:59:10.164Z,18.06
2019-05-21T16:01:40.747Z,18.02
2019-05-21T16:04:50.384Z,17.84
2019-05-21T16:07:38.834Z,17.84
2019-05-21T16:10:47.629Z,17.71
2019-05-21T16:13:17.283Z,17.58
2019-05-21T16:15:46.971Z,17.53
2019-05-21T16:18:16.730Z,17.25
2019-05-21T16:20:46.118Z,17.24
2019-05-21T16:23:15.494Z,17.15
2019-05-21T16:25:44.996Z,17.20
2019-05-21T16:28:14.790Z,17.21
2019-05-21T16:30:44.436Z,17.24
2019-05-21T16:33:13.799Z,17.35
2019-05-21T16:35:43.262Z,17.32
2019-05-21T16:38:12.969Z,17.33
2019-05-21T16:40:42.561Z,17.19
2019-05-21T16:43:12.750Z,17.17
2019-05-21T16:45:42.202Z,17.24
2019-05-21T16:48:11.588Z,17.26
2019-05-21T16:50:41.544Z,17.25
2019-05-21T16:53:11.397Z,17.18
2019-05-21T16:55:41.240Z,17.24
2019-05-21T16:58:10.651Z,17.22
2019-05-21T17:00:40.274Z,17.22
2019-05-21T17:03:09.805Z,17.26
2019-05-21T17:05:39.328Z,17.35
2019-05-21T17:08:08.717Z,17.34
2019-05-21T17:10:38.144Z,17.36
2019-05-21T17:13:07.669Z,17.34
2019-05-21T17:15:37.073Z,17.31
2019-05-21T17:18:06.584Z,17.23
2019-05-21T17:20:36.247Z,17.25
2019-05-21T17:23:05.755Z,17.31
2019-05-21T17:25:35.131Z,17.28
2019-05-21T17:28:04.863Z,17.28
2019-05-21T17:30:34.411Z,17.27
2019-05-21T17:33:03.910Z,17.19
2019-05-21T17:35:33.405Z,17.09
2019-05-21T17:38:02.850Z,16.96
2019-05-21T17:40:32.413Z,16.93
2019-05-21T17:43:01.809Z,16.90
2019-05-21T17:45:31.215Z,16.87
2019-05-21T17:48:00.749Z,16.87
2019-05-21T17:50:30.127Z,16.90
2019-05-21T17:52:59.715Z,16.89
2019-05-21T17:55:29.802Z,16.86
2019-05-21T17:57:59.319Z,16.84
2019-05-21T18:01:09.187Z,16.87
2019-05-21T18:03:38.683Z,16.83
2019-05-21T18:06:08.754Z,16.82
2019-05-21T18:08:40.497Z,16.84
2019-05-21T18:11:11.504Z,16.86
2019-05-21T18:13:41.725Z,16.89
2019-05-21T18:16:12.146Z,16.83
2019-05-21T18:18:42.528Z,16.85
2019-05-21T18:21:12.196Z,16.81
2019-05-21T18:23:41.881Z,16.83
2019-05-21T18:26:11.603Z,16.80
2019-05-21T18:28:44.782Z,16.73
2019-05-21T18:34:20.258Z,16.68
2019-05-21T18:36:49.809Z,16.60
2019-05-21T18:39:20.661Z,16.58
2019-05-21T18:41:50.144Z,16.56
2019-05-21T18:44:19.550Z,16.54
2019-05-21T18:46:49.061Z,16.49
2019-05-21T18:49:18.578Z,16.45
2019-05-21T18:52:27.688Z,16.42
2019-05-21T18:54:57.256Z,16.41
2019-05-21T18:57:26.829Z,16.39
2019-05-21T18:59:56.238Z,16.31
2019-05-21T19:02:25.641Z,16.28
2019-05-21T19:05:06.946Z,16.19
2019-05-21T19:07:36.606Z,16.14
2019-05-21T19:13:31.528Z,16.01
2019-05-21T19:16:00.920Z,16.02
2019-05-21T19:18:30.563Z,16.00
2019-05-21T19:21:00.360Z,15.98
2019-05-21T19:23:30.330Z,15.96
2019-05-21T19:25:59.935Z,15.91
2019-05-21T19:28:29.323Z,15.82
2019-05-21T19:31:38.054Z,15.74
2019-05-21T19:34:19.143Z,15.66
2019-05-21T19:39:57.704Z,15.52
2019-05-21T19:42:27.400Z,15.42
2019-05-21T19:44:56.852Z,15.33
2019-05-21T19:47:26.227Z,15.28
2019-05-21T19:49:55.728Z,15.25
2019-05-21T19:52:25.283Z,15.20
2019-05-21T19:54:54.883Z,15.11
2019-05-21T19:58:03.816Z,15.05
2019-05-21T20:01:12.578Z,15.01
2019-05-21T20:07:11.429Z,14.87
2019-05-21T20:12:54.766Z,14.71
2019-05-21T20:15:24.636Z,14.66
2019-05-21T20:18:06.636Z,14.63
2019-05-21T20:20:28.019Z,14.60
2019-05-21T20:22:58.091Z,14.56
2019-05-21T20:25:29.686Z,14.49
2019-05-21T20:27:59.510Z,14.47
2019-05-21T20:30:30.443Z,14.43
2019-05-21T20:33:00.767Z,14.39
2019-05-21T20:35:31.357Z,14.34
2019-05-21T20:38:01.605Z,14.30
2019-05-21T20:40:31.238Z,14.29
2019-05-21T20:43:00.629Z,14.24
2019-05-21T20:45:30.119Z,14.18
2019-05-21T20:47:59.605Z,13.53
2019-05-21T20:50:29.812Z,14.05
2019-05-21T20:52:59.412Z,13.97
2019-05-21T20:58:24.670Z,13.88
2019-05-21T21:04:03.788Z,13.68
2019-05-21T21:06:36.004Z,13.77
2019-05-21T21:09:10.421Z,13.73
2019-05-21T21:11:40.132Z,13.68
2019-05-21T21:14:17.906Z,13.61
2019-05-21T21:16:43.418Z,13.56
2019-05-21T21:19:12.881Z,13.49
2019-05-21T21:21:42.439Z,13.43
2019-05-21T21:24:12.152Z,13.41
2019-05-21T21:32:59.433Z,13.14
2019-05-21T21:35:48.077Z,13.17
2019-05-21T21:38:24.231Z,13.04
2019-05-21T21:40:54.483Z,13.07
2019-05-21T21:43:24.211Z,13.03
2019-05-21T21:45:53.803Z,13.03
2019-05-21T21:54:28.241Z,12.95
2019-05-21T21:59:58.985Z,12.89
2019-05-21T22:03:08.411Z,12.91
2019-05-21T22:06:17.393Z,12.85
2019-05-21T22:35:41.478Z,12.47
2019-05-21T22:41:12.395Z,12.35
2019-05-21T22:44:21.113Z,12.34
2019-05-21T22:50:06.736Z,12.31
2019-05-21T22:52:36.264Z,12.30
2019-05-21T22:55:06.116Z,12.28
2019-05-21T22:57:35.563Z,12.26
2019-05-21T23:00:44.663Z,12.18
2019-05-21T23:06:20.458Z,12.07
2019-05-21T23:11:40.281Z,12.05
2019-05-21T23:20:30.473Z,11.92
2019-05-21T23:28:57.159Z,11.83
2019-05-21T23:34:53.288Z,11.82
2019-05-21T23:43:49.301Z,11.84
2019-05-21T23:46:18.735Z,11.81
2019-05-21T23:49:27.549Z,11.81
2019-05-21T23:51:57.309Z,11.81
2019-05-21T23:55:06.483Z,11.75
